Time;durP1;ratioP1;P1;durP2;ratioP2;P2;SDS_P1;SDS_P2;PMS_P1;PMS_P2;Temp;Humidity;BMP_temperature;BMP_pressure;BME280_temperature;BME280_humidity;BME280_pressure;Samples;Min_cycle;Max_cycle;Signal;HPM_P1;HPM_P2
2023/09/24 00:01:24;;;;;;;3.93;2.43;;;;;;;-145.68;100.00;74877.19;10451381;28;20652;-74
2023/09/24 00:06:25;;;;;;;4.37;2.30;;;;;;;-145.68;100.00;74873.19;10450708;28;20194;-74
2023/09/24 00:11:25;;;;;;;4.27;2.40;;;;;;;-145.68;100.00;74877.19;10433102;28;20188;-73
2023/09/24 00:16:26;;;;;;;3.60;2.27;;;;;;;-145.68;100.00;74875.19;10433406;28;20227;-74
2023/09/24 00:21:26;;;;;;;2.27;2.00;;;;;;;-145.68;100.00;74883.19;10415868;28;20196;-74
2023/09/24 00:26:27;;;;;;;3.80;2.37;;;;;;;-145.68;100.00;74885.19;10434138;28;20192;-74
2023/09/24 00:31:27;;;;;;;2.40;2.20;;;;;;;-145.68;100.00;74893.19;10449844;28;20565;-74
2023/09/24 00:36:28;;;;;;;4.63;2.27;;;;;;;-145.68;100.00;74903.19;10415755;28;20216;-73
2023/09/24 00:41:28;;;;;;;2.87;2.00;;;;;;;-145.68;100.00;74901.19;10432640;28;20195;-74
2023/09/24 00:46:30;;;;;;;3.20;2.10;;;;;;;-145.68;100.00;74903.19;10432064;28;20258;-74
2023/09/24 00:51:31;;;;;;;5.20;2.57;;;;;;;-145.68;100.00;74893.19;10412981;28;20235;-74
2023/09/24 00:56:32;;;;;;;2.67;2.40;;;;;;;-145.68;100.00;74891.19;10414766;28;20219;-74
2023/09/24 01:01:34;;;;;;;3.03;1.90;;;;;;;-145.68;100.00;74887.19;10431974;28;20246;-74
2023/09/24 01:06:34;;;;;;;5.87;2.30;;;;;;;-145.68;100.00;74903.19;10430668;28;20755;-74
2023/09/24 01:11:37;;;;;;;5.40;2.50;;;;;;;-145.68;100.00;74903.19;10413326;28;20212;-74
2023/09/24 01:16:38;;;;;;;5.17;2.53;;;;;;;-145.68;100.00;74909.19;10448891;28;20659;-74
2023/09/24 01:21:39;;;;;;;5.13;2.57;;;;;;;-145.68;100.00;74917.19;10448422;28;20187;-74
2023/09/24 01:26:39;;;;;;;4.60;2.43;;;;;;;-145.68;100.00;74933.19;10430629;28;20652;-74
2023/09/24 01:31:39;;;;;;;4.10;2.97;;;;;;;-145.68;100.00;74917.19;10447403;28;20192;-74
2023/09/24 01:36:40;;;;;;;6.10;2.70;;;;;;;-145.68;100.00;74931.19;10447449;28;20221;-75
2023/09/24 01:41:41;;;;;;;5.23;2.73;;;;;;;-145.68;100.00;74935.19;10448552;28;20196;-74
2023/09/24 01:46:41;;;;;;;5.30;2.50;;;;;;;-145.68;100.00;74945.19;10446972;28;20198;-74
2023/09/24 01:51:44;;;;;;;5.33;2.90;;;;;;;-145.68;100.00;74957.19;10446738;28;20926;-74
2023/09/24 01:56:44;;;;;;;4.07;2.13;;;;;;;-145.68;100.00;74981.19;10428658;28;20220;-74
2023/09/24 02:01:45;;;;;;;5.23;2.70;;;;;;;-145.68;100.00;74981.19;10429742;28;20199;-74
2023/09/24 02:06:45;;;;;;;3.77;2.40;;;;;;;-145.68;100.00;74985.19;10424993;28;20206;-74
2023/09/24 02:11:46;;;;;;;6.90;2.80;;;;;;;-145.68;100.00;74987.16;10446521;28;20309;-74
2023/09/24 02:16:47;;;;;;;3.03;2.43;;;;;;;-145.68;100.00;74983.19;10425100;28;20258;-74
2023/09/24 02:21:47;;;;;;;4.83;2.63;;;;;;;-145.68;100.00;74989.16;10411604;28;20192;-74
2023/09/24 02:26:48;;;;;;;5.00;2.57;;;;;;;-145.68;100.00;74987.16;10428878;28;20199;-74
2023/09/24 02:31:52;;;;;;;3.80;2.80;;;;;;;-145.68;100.00;75013.16;10437474;28;20238;-74
2023/09/24 02:36:54;;;;;;;5.13;2.70;;;;;;;-145.68;100.00;75001.16;10461045;28;20258;-74
2023/09/24 02:41:55;;;;;;;5.00;2.67;;;;;;;-145.68;100.00;74999.16;10441002;28;20207;-74
2023/09/24 02:46:56;;;;;;;3.53;2.30;;;;;;;-145.68;100.00;75003.16;10424076;28;20699;-74
2023/09/24 02:51:56;;;;;;;5.07;2.60;;;;;;;-145.68;100.00;74999.16;10424338;28;20187;-74
2023/09/24 02:56:58;;;;;;;5.47;2.57;;;;;;;-145.68;100.00;74991.16;10459782;28;20226;-74
2023/09/24 03:01:58;;;;;;;4.20;2.53;;;;;;;-145.68;100.00;75011.16;10458698;28;20265;-74
2023/09/24 03:06:58;;;;;;;4.53;2.70;;;;;;;-145.68;100.00;75015.16;10458644;28;20241;-74
2023/09/24 03:11:59;;;;;;;3.13;2.20;;;;;;;-145.68;100.00;75023.16;10440356;28;20277;-74
2023/09/24 03:16:59;;;;;;;2.40;2.20;;;;;;;-145.68;100.00;75043.16;10441367;28;20247;-74
2023/09/24 03:22:00;;;;;;;4.80;2.40;;;;;;;-145.68;100.00;75035.16;10437592;28;20206;-74
2023/09/24 03:27:00;;;;;;;5.40;2.63;;;;;;;-145.68;100.00;75057.16;10458778;28;20202;-73
2023/09/24 03:32:01;;;;;;;6.23;2.30;;;;;;;-145.68;100.00;75071.16;10458785;28;20535;-74
2023/09/24 03:37:02;;;;;;;3.47;2.53;;;;;;;-145.68;100.00;75071.16;10440725;28;20683;-74
2023/09/24 03:42:03;;;;;;;4.70;2.37;;;;;;;-145.68;100.00;75063.16;10436056;28;20191;-73
2023/09/24 03:47:03;;;;;;;4.27;2.60;;;;;;;-145.68;100.00;75061.16;10451670;28;20227;-74
2023/09/24 03:52:04;;;;;;;7.13;3.20;;;;;;;-145.68;100.00;75057.16;10433828;28;20599;-74
2023/09/24 03:57:05;;;;;;;4.83;2.90;;;;;;;-145.68;100.00;75065.16;10433878;28;20640;-74
2023/09/24 04:02:06;;;;;;;4.97;2.57;;;;;;;-145.68;100.00;75065.16;10416217;28;20194;-74
2023/09/24 04:07:06;;;;;;;6.53;2.60;;;;;;;-145.68;100.00;75079.16;10451650;28;20195;-74
2023/09/24 04:12:08;;;;;;;6.20;3.17;;;;;;;-145.68;100.00;75101.16;10433017;28;20232;-73
2023/09/24 04:17:09;;;;;;;6.17;2.90;;;;;;;-145.68;100.00;75107.16;10450624;28;20273;-73
2023/09/24 04:22:09;;;;;;;3.70;2.83;;;;;;;-145.68;100.00;75131.16;10450539;28;20275;-74
2023/09/24 04:27:10;;;;;;;6.20;2.90;;;;;;;-145.68;100.00;75125.16;10432225;28;20196;-74
2023/09/24 04:32:11;;;;;;;6.07;3.10;;;;;;;-145.68;100.00;75123.16;10432741;28;20198;-74
2023/09/24 04:37:16;;;;;;;7.90;3.20;;;;;;;-145.68;100.00;75133.16;10450239;28;20285;-74
2023/09/24 04:42:16;;;;;;;5.67;2.80;;;;;;;-145.68;100.00;75159.13;10431613;28;20660;-74
2023/09/24 04:47:17;;;;;;;3.33;2.53;;;;;;;-145.68;100.00;75155.13;10431663;28;20266;-74
2023/09/24 04:52:17;;;;;;;5.33;2.63;;;;;;;-145.68;100.00;75153.13;10448824;28;20200;-74
2023/09/24 04:57:18;;;;;;;4.07;2.80;;;;;;;-145.68;100.00;75143.13;10449556;28;20220;-73
2023/09/24 05:02:21;;;;;;;2.93;2.63;;;;;;;-145.68;100.00;75119.16;10430998;28;20592;-74
2023/09/24 05:07:21;;;;;;;3.33;2.70;;;;;;;-145.68;100.00;75105.16;10449313;28;20238;-74
2023/09/24 05:12:23;;;;;;;4.27;2.83;;;;;;;-145.68;100.00;75083.16;10448406;28;20246;-74
2023/09/24 05:17:23;;;;;;;4.23;2.60;;;;;;;-145.68;100.00;75059.16;10447914;28;20310;-74
2023/09/24 05:22:27;;;;;;;3.50;2.30;;;;;;;-145.68;100.00;75055.16;10448378;28;20248;-73
2023/09/24 05:27:29;;;;;;;2.63;2.10;;;;;;;-145.68;100.00;75079.16;10429869;28;20613;-73
2023/09/24 05:32:32;;;;;;;5.63;2.87;;;;;;;-145.68;100.00;75071.16;10429737;28;20937;-74
2023/09/24 05:37:32;;;;;;;3.30;2.20;;;;;;;-145.68;100.00;75061.16;10447556;28;20797;-74
2023/09/24 05:42:33;;;;;;;5.03;2.80;;;;;;;-145.68;100.00;75041.16;10447310;28;20230;-74
2023/09/24 05:47:33;;;;;;;3.33;2.63;;;;;;;-145.68;100.00;75043.16;10447267;28;20703;-74
2023/09/24 05:52:34;;;;;;;6.70;3.20;;;;;;;-145.68;100.00;75015.16;10446943;28;20196;-74
2023/09/24 05:57:34;;;;;;;2.80;2.47;;;;;;;-145.68;100.00;74989.16;10428678;28;20227;-74
2023/09/24 06:02:34;;;;;;;4.17;2.50;;;;;;;-145.68;100.00;74971.19;10428743;28;20190;-74
2023/09/24 06:07:35;;;;;;;6.00;2.67;;;;;;;-145.68;100.00;74957.19;10446335;28;20591;-74
2023/09/24 06:12:35;;;;;;;4.33;2.87;;;;;;;-145.68;100.00;74919.19;10445911;28;20184;-75
2023/09/24 06:17:36;;;;;;;4.57;2.60;;;;;;;-145.68;100.00;74865.19;10446337;28;20211;-75
2023/09/24 06:22:36;;;;;;;7.17;3.20;;;;;;;-145.68;100.00;74835.22;10446376;28;20180;-74
2023/09/24 06:27:37;;;;;;;4.57;2.90;;;;;;;-145.68;100.00;74819.22;10428326;28;20187;-74
2023/09/24 06:32:37;;;;;;;4.50;2.70;;;;;;;-145.68;100.00;74757.22;10445955;28;20198;-74
2023/09/24 06:37:38;;;;;;;3.93;2.57;;;;;;;-145.68;100.00;74723.25;10446048;28;20630;-74
2023/09/24 06:42:38;;;;;;;4.90;3.10;;;;;;;-145.68;100.00;74715.25;10426068;28;20671;-73
2023/09/24 06:47:38;;;;;;;6.77;2.83;;;;;;;-145.68;100.00;74707.25;10446014;28;20228;-74
2023/09/24 06:52:39;;;;;;;5.90;3.63;;;;;;;-145.68;100.00;74675.25;10445201;28;20231;-74
2023/09/24 06:57:40;;;;;;;9.77;4.03;;;;;;;-145.68;100.00;74715.25;10427797;28;20265;-73
2023/09/24 07:02:41;;;;;;;7.23;3.80;;;;;;;-145.68;100.00;74699.25;10445645;28;20195;-74
2023/09/24 07:07:41;;;;;;;6.73;3.90;;;;;;;-145.68;100.00;74651.25;10444892;28;20195;-74
2023/09/24 07:12:42;;;;;;;6.07;3.80;;;;;;;-145.68;100.00;74635.28;10427480;28;20703;-74
2023/09/24 07:17:43;;;;;;;5.63;3.72;;;;;;;-145.68;100.00;74607.28;10450071;28;20216;-74
2023/09/24 07:22:43;;;;;;;7.60;4.03;;;;;;;-145.68;100.00;74599.28;10452743;28;20203;-74
2023/09/24 07:27:44;;;;;;;6.15;3.45;;;;;;;-145.68;100.00;74611.28;10452723;28;20195;-74
2023/09/24 07:32:47;;;;;;;7.25;3.45;;;;;;;-145.68;100.00;74607.28;10418195;28;20231;-74
2023/09/24 07:37:47;;;;;;;4.95;3.88;;;;;;;-145.68;100.00;74671.25;10452311;28;20589;-73
2023/09/24 07:42:47;;;;;;;6.63;3.93;;;;;;;-145.68;100.00;74615.28;10452206;28;20188;-74
2023/09/24 07:47:48;;;;;;;7.95;4.13;;;;;;;-145.68;99.24;74593.28;10451911;28;20235;-74
2023/09/24 07:52:48;;;;;;;8.10;4.72;;;;;;;-145.68;98.76;74543.31;10451218;28;20729;-74
2023/09/24 07:57:48;;;;;;;8.18;3.50;;;;;;;-145.68;93.40;74471.31;10433824;28;20220;-74
2023/09/24 08:02:49;;;;;;;7.78;4.38;;;;;;;-145.68;91.15;74519.31;10433489;28;20200;-74
2023/09/24 08:07:49;;;;;;;8.48;5.00;;;;;;;-145.68;91.38;74543.31;10451212;28;20539;-74
2023/09/24 08:12:50;;;;;;;5.55;4.28;;;;;;;-145.68;90.97;74471.31;10416027;28;20250;-74
2023/09/24 08:17:51;;;;;;;7.45;4.22;;;;;;;-145.68;87.03;74443.34;10451248;28;20277;-74
2023/09/24 08:22:51;;;;;;;6.43;4.50;;;;;;;-145.68;83.93;74439.34;10453692;28;20191;-73
2023/09/24 08:27:52;;;;;;;7.63;4.20;;;;;;;-145.68;85.19;74413.34;10449679;28;20188;-74
2023/09/24 08:32:52;;;;;;;12.48;4.18;;;;;;;-145.68;81.57;74377.38;10450098;28;20199;-74
2023/09/24 08:37:53;;;;;;;7.07;4.93;;;;;;;-145.68;85.43;74417.34;10428387;28;20589;-74
2023/09/24 08:42:55;;;;;;;9.40;5.15;;;;;;;-145.68;82.14;74331.38;10431803;28;20648;-74
2023/09/24 08:48:00;;;;;;;6.32;4.15;;;;;;;-145.68;79.09;74335.38;10448999;28;20247;-74
2023/09/24 08:53:01;;;;;;;5.30;4.20;;;;;;;-145.68;76.23;74271.41;10449269;28;20195;-74
2023/09/24 08:58:02;;;;;;;6.78;3.55;;;;;;;-145.68;71.10;74193.44;10431256;28;20273;-74
2023/09/24 09:03:04;;;;;;;9.05;4.47;;;;;;;-145.68;73.77;74343.38;10449231;28;20269;-74
2023/09/24 09:08:05;;;;;;;6.53;3.90;;;;;;;-145.68;71.38;74153.47;10448730;28;20274;-74
2023/09/24 09:13:09;;;;;;;4.63;3.60;;;;;;;-145.68;69.15;74143.47;10430315;28;20207;-74
2023/09/24 09:18:26;;;;;;;6.97;2.85;;;;;;;-145.68;66.28;74143.47;10448814;28;20254;-74
2023/09/24 09:23:29;;;;;;;7.53;3.58;;;;;;;-145.68;65.77;74121.47;10447220;28;20205;-74
2023/09/24 09:28:31;;;;;;;7.40;3.47;;;;;;;-145.68;66.71;74195.44;10448353;28;20622;-74
2023/09/24 09:33:36;;;;;;;5.60;3.30;;;;;;;-145.68;67.56;74197.44;10429985;28;20299;-75
2023/09/24 09:38:37;;;;;;;5.97;3.90;;;;;;;-145.68;69.10;74251.41;10447021;28;20192;-74
2023/09/24 09:43:38;;;;;;;7.13;4.13;;;;;;;-145.68;71.01;74259.41;10429393;28;20192;-74
2023/09/24 09:48:43;;;;;;;5.60;4.00;;;;;;;-145.68;71.08;74241.41;10412834;28;20250;-74
2023/09/24 09:53:43;;;;;;;8.30;3.80;;;;;;;-145.68;71.05;74201.44;10429008;28;20215;-74
2023/09/24 09:58:47;;;;;;;9.55;3.85;;;;;;;-145.68;69.80;74209.44;10431271;28;20192;-74
2023/09/24 10:03:51;;;;;;;6.95;3.65;;;;;;;-145.68;70.21;74213.44;10429215;28;20548;-74
2023/09/24 10:08:52;;;;;;;8.05;4.50;;;;;;;-145.68;71.05;74219.44;10410080;28;20199;-74
2023/09/24 10:13:52;;;;;;;7.22;3.80;;;;;;;-145.68;70.58;74175.44;10447630;28;20211;-75
2023/09/24 10:19:09;;;;;;;8.63;3.88;;;;;;;-145.68;67.46;74095.47;10425157;28;20187;-74
2023/09/24 10:24:09;;;;;;;5.07;3.50;;;;;;;-145.68;66.21;74091.47;10444836;28;20180;-75
2023/09/24 10:29:10;;;;;;;8.17;2.83;;;;;;;-145.68;58.64;73781.63;10446796;28;20203;-75
2023/09/24 10:34:10;;;;;;;4.20;2.83;;;;;;;-145.68;52.06;73541.78;10444493;28;20988;-75
2023/09/24 10:39:13;;;;;;;5.82;2.38;;;;;;;-145.68;49.98;73551.75;10428272;28;20247;-74
2023/09/24 10:44:24;;;;;;;4.03;1.95;;;;;;;-145.68;49.28;73555.75;10445761;28;20184;-75
2023/09/24 10:49:24;;;;;;;1.77;1.17;;;;;;;-145.68;47.42;73547.75;10426512;28;20235;-75
2023/09/24 10:54:25;;;;;;;2.00;1.45;;;;;;;-145.68;46.64;73421.84;10419509;28;20656;-74
2023/09/24 10:59:33;;;;;;;2.95;2.17;;;;;;;-145.68;49.07;73679.69;10433763;28;20281;-74
2023/09/24 11:04:33;;;;;;;2.88;1.73;;;;;;;-145.68;51.82;73867.59;10453741;28;20270;-74
2023/09/24 11:09:34;;;;;;;5.20;1.42;;;;;;;-145.68;52.54;73903.56;10451542;28;20346;-75
2023/09/24 11:14:34;;;;;;;2.83;1.30;;;;;;;-145.68;52.56;73755.66;10453724;28;20244;-75
2023/09/24 11:19:42;;;;;;;1.75;1.50;;;;;;;-145.68;47.45;73575.75;10450987;28;20676;-75
2023/09/24 11:24:42;;;;;;;2.78;1.48;;;;;;;-145.68;45.51;73411.84;10435150;28;20195;-75
2023/09/24 11:29:58;;;;;;;2.42;1.00;;;;;;;-145.68;44.76;73367.88;10451815;28;20648;-74
2023/09/24 11:35:10;;;;;;;4.97;1.50;;;;;;;-145.68;46.92;73623.72;10452084;28;20234;-74
2023/09/24 11:40:29;;;;;;;3.97;1.40;;;;;;;-145.68;45.86;73543.78;10451088;28;20664;-75
2023/09/24 11:45:53;;;;;;;3.67;1.42;;;;;;;-145.68;47.88;73667.69;10449599;28;20237;-75
2023/09/24 11:50:56;;;;;;;4.65;1.33;;;;;;;-145.68;48.72;73717.66;10427411;28;20365;-75
2023/09/24 11:55:58;;;;;;;1.95;0.82;;;;;;;-145.68;48.78;73685.69;10434292;28;20219;-74
2023/09/24 12:00:59;;;;;;;3.33;1.17;;;;;;;-145.68;47.47;73691.69;10449510;28;20261;-75
2023/09/24 12:05:59;;;;;;;1.83;1.10;;;;;;;-145.68;46.14;73527.78;10450777;28;20192;-74
2023/09/24 12:10:59;;;;;;;1.75;0.82;;;;;;;-145.68;42.41;73299.91;10431470;28;20539;-74
2023/09/24 12:16:00;;;;;;;2.88;1.17;;;;;;;-145.68;43.69;73345.88;10432742;28;20219;-74
2023/09/24 12:21:00;;;;;;;1.30;0.68;;;;;;;-145.68;42.51;73281.94;10449231;28;20250;-75
2023/09/24 12:26:00;;;;;;;1.85;0.90;;;;;;;-145.68;42.67;73359.88;10450600;28;20559;-74
2023/09/24 12:31:01;;;;;;;1.17;0.90;;;;;;;-145.68;42.63;73463.81;10448556;28;20198;-74
2023/09/24 12:36:01;;;;;;;1.63;0.90;;;;;;;-145.68;45.95;73607.72;10449998;28;20715;-74
2023/09/24 12:41:02;;;;;;;3.08;1.25;;;;;;;-145.68;47.22;73727.66;10449091;28;20200;-75
2023/09/24 12:46:07;;;;;;;3.38;1.27;;;;;;;-145.68;45.90;73631.72;10449673;28;20671;-75
2023/09/24 12:51:08;;;;;;;3.08;1.30;;;;;;;-145.68;43.27;73519.78;10448629;28;20328;-74
2023/09/24 12:56:09;;;;;;;2.05;1.00;;;;;;;-145.68;42.75;73331.91;10430818;28;20305;-74
2023/09/24 13:01:09;;;;;;;3.03;1.10;;;;;;;-145.68;42.41;73307.91;10449282;28;20655;-74
2023/09/24 13:06:22;;;;;;;2.42;1.35;;;;;;;-145.68;44.85;73525.78;10429720;28;20217;-74
2023/09/24 13:11:22;;;;;;;1.92;1.10;;;;;;;-145.68;46.02;73605.72;10431794;28;20562;-74
2023/09/24 13:16:23;;;;;;;1.55;0.90;;;;;;;-145.68;47.33;73707.69;10446384;28;20214;-74
2023/09/24 13:21:23;;;;;;;2.83;1.13;;;;;;;-145.68;47.17;73685.69;10430152;28;20192;-75
2023/09/24 13:26:24;;;;;;;2.85;0.93;;;;;;;-145.68;43.66;73441.81;10429644;28;20601;-74
2023/09/24 13:31:24;;;;;;;3.83;1.25;;;;;;;-145.68;40.95;73211.97;10446886;28;20188;-74
2023/09/24 13:36:24;;;;;;;2.20;0.90;;;;;;;-145.68;38.83;73056.09;10450706;28;20769;-74
2023/09/24 13:41:27;;;;;;;1.60;1.40;;;;;;;-145.68;36.97;72996.13;10447637;28;20199;-74
2023/09/24 13:46:28;;;;;;;1.00;0.90;;;;;;;-145.68;39.16;73361.88;10445626;28;20220;-74
2023/09/24 13:51:28;;;;;;;4.32;0.95;;;;;;;-145.68;41.09;73411.84;10429178;28;20350;-74
2023/09/24 13:56:29;;;;;;;3.65;0.82;;;;;;;-145.68;39.45;73335.91;10428120;28;20572;-74
2023/09/24 14:01:30;;;;;;;0.73;0.60;;;;;;;-145.68;37.37;72996.13;10447229;28;20215;-74
2023/09/24 14:06:30;;;;;;;2.83;1.10;;;;;;;-145.68;39.31;73150.03;10445673;28;20184;-74
2023/09/24 14:16:50;;;;;;;1.77;1.00;;;;;;;-145.68;39.82;73273.94;10444829;28;20714;-74
2023/09/24 14:21:50;;;;;;;0.98;0.88;;;;;;;-145.68;42.11;73421.84;10443872;28;20200;-75
2023/09/24 14:26:50;;;;;;;1.85;1.02;;;;;;;-145.68;44.27;73547.75;10446742;28;20253;-74
2023/09/24 14:31:51;;;;;;;2.53;1.05;;;;;;;-145.68;43.69;73555.75;10426763;28;20184;-75
2023/09/24 14:36:51;;;;;;;3.92;1.20;;;;;;;-145.68;45.68;73675.69;10449749;28;20251;-75
2023/09/24 14:41:53;;;;;;;1.58;0.90;;;;;;;-145.68;43.78;73463.81;10451415;28;20667;-75
2023/09/24 14:46:53;;;;;;;5.15;1.00;;;;;;;-145.68;41.89;73307.91;10444088;28;20252;-75
2023/09/24 14:51:54;;;;;;;1.42;0.60;;;;;;;-145.68;36.85;72900.19;10428302;28;20188;-75
2023/09/24 14:56:54;;;;;;;4.00;0.90;;;;;;;-145.68;37.18;73094.06;10445521;28;20230;-75
2023/09/24 15:01:55;;;;;;;2.83;0.90;;;;;;;-145.68;34.60;72826.25;10445481;28;20317;-75
2023/09/24 15:06:55;;;;;;;1.45;0.80;;;;;;;-145.68;32.38;72504.53;10445883;28;20204;-75
2023/09/24 15:11:55;;;;;;;1.75;0.88;;;;;;;-145.68;31.38;72332.66;10445350;28;20230;-75
2023/09/24 15:16:57;;;;;;;1.27;0.70;;;;;;;-145.68;32.12;72376.63;10446224;28;20231;-75
2023/09/24 15:21:58;;;;;;;3.75;1.13;;;;;;;-145.68;30.54;72292.72;10444421;28;20211;-73
2023/09/24 15:26:58;;;;;;;1.90;0.80;;;;;;;-145.68;31.72;72396.63;10451643;28;20224;-74
2023/09/24 15:31:59;;;;;;;1.35;0.77;;;;;;;-145.68;31.42;72448.56;10465500;28;20449;-74
2023/09/24 15:36:59;;;;;;;3.17;1.00;;;;;;;-145.68;31.92;72462.56;10465817;28;20188;-74
2023/09/24 15:41:59;;;;;;;2.00;0.90;;;;;;;-145.68;32.93;72740.31;10467416;28;20563;-74
2023/09/24 15:47:00;;;;;;;2.78;0.88;;;;;;;-145.68;34.71;72800.28;10469912;28;20469;-74
2023/09/24 15:52:01;;;;;;;1.45;0.98;;;;;;;-145.68;34.10;72742.31;10472443;28;20184;-74
2023/09/24 15:57:01;;;;;;;3.30;2.30;;;;;;;-145.68;36.50;73026.09;10450614;28;20702;-73
2023/09/24 16:02:02;;;;;;;1.58;1.00;;;;;;;-145.68;39.33;73285.94;10458835;28;20192;-73
2023/09/24 16:07:02;;;;;;;2.28;1.20;;;;;;;-145.68;42.53;73517.78;10459779;28;20973;-73
2023/09/24 16:12:03;;;;;;;2.67;1.33;;;;;;;-145.68;44.59;73659.69;10458677;28;20218;-73
2023/09/24 16:17:03;;;;;;;2.63;1.05;;;;;;;-145.68;46.11;73751.66;10469753;28;20195;-73
2023/09/24 16:22:04;;;;;;;4.03;2.50;;;;;;;-145.68;48.76;73867.59;10476311;28;20215;-73
2023/09/24 16:27:04;;;;;;;10.48;5.05;;;;;;;-145.68;50.99;73971.53;10465572;28;20239;-73
2023/09/24 16:32:06;;;;;;;5.57;3.05;;;;;;;-145.68;56.03;74197.44;10476172;28;20229;-73
2023/09/24 16:37:06;;;;;;;3.33;2.60;;;;;;;-145.68;57.66;74213.44;10459549;28;20180;-73
2023/09/24 16:42:06;;;;;;;2.40;1.67;;;;;;;-145.68;61.21;74351.38;10472039;28;20200;-73
2023/09/24 16:47:07;;;;;;;3.30;1.75;;;;;;;-145.68;62.92;74365.38;10450120;28;20255;-73
2023/09/24 16:52:08;;;;;;;2.28;1.70;;;;;;;-145.68;65.23;74407.34;10473845;28;20428;-74
2023/09/24 16:57:08;;;;;;;4.90;3.67;;;;;;;-145.68;72.08;74625.28;10476366;28;20331;-74
2023/09/24 17:02:09;;;;;;;3.70;2.22;;;;;;;-145.68;79.24;74619.28;10469299;28;20200;-74
2023/09/24 17:07:11;;;;;;;3.78;2.20;;;;;;;-145.68;82.02;74653.25;10472662;28;20227;-75
2023/09/24 17:12:11;;;;;;;2.97;2.10;;;;;;;-145.68;83.74;74645.28;10471612;28;20477;-75
2023/09/24 17:17:13;;;;;;;3.05;1.95;;;;;;;-145.68;87.70;74673.25;10450648;28;20590;-74
2023/09/24 17:22:13;;;;;;;5.25;2.03;;;;;;;-145.68;90.00;74711.25;10448470;28;20200;-74
2023/09/24 17:27:14;;;;;;;1.70;1.60;;;;;;;-145.68;94.00;74733.25;10431945;28;20216;-74
2023/09/24 17:32:14;;;;;;;2.53;1.70;;;;;;;-145.68;96.63;74745.25;10447993;28;20203;-74
2023/09/24 17:37:14;;;;;;;2.67;1.70;;;;;;;-145.68;99.93;74777.22;10430708;28;20195;-74
2023/09/24 17:42:15;;;;;;;3.37;1.90;;;;;;;-145.68;100.00;74801.22;10447701;28;20669;-74
2023/09/24 17:47:15;;;;;;;2.83;2.63;;;;;;;-145.68;100.00;74815.22;10447422;28;20231;-74
2023/09/24 17:52:17;;;;;;;3.30;2.03;;;;;;;-145.68;100.00;74843.22;10447165;28;20195;-74
2023/09/24 17:57:18;;;;;;;3.03;2.23;;;;;;;-145.68;100.00;74869.19;10447702;28;20206;-74
2023/09/24 18:02:18;;;;;;;4.37;2.80;;;;;;;-145.68;100.00;74891.19;10446896;28;20254;-74
2023/09/24 18:07:19;;;;;;;4.47;3.50;;;;;;;-145.68;100.00;74917.19;10433647;28;20661;-74
2023/09/24 18:12:19;;;;;;;2.73;2.17;;;;;;;-145.68;100.00;74925.19;10429370;28;20188;-75
2023/09/24 18:17:20;;;;;;;2.53;2.33;;;;;;;-145.68;100.00;74955.19;10429353;28;20263;-74
2023/09/24 18:22:20;;;;;;;6.23;3.00;;;;;;;-145.68;100.00;74975.19;10445898;28;20188;-74
2023/09/24 18:27:20;;;;;;;8.13;3.47;;;;;;;-145.68;100.00;74991.16;10447137;28;20199;-75
2023/09/24 18:32:21;;;;;;;6.10;2.93;;;;;;;-145.68;100.00;75031.16;10446598;28;20215;-74
2023/09/24 18:37:21;;;;;;;5.33;3.17;;;;;;;-145.68;100.00;75039.16;10446331;28;20702;-74
2023/09/24 18:42:22;;;;;;;3.90;2.77;;;;;;;-145.68;100.00;75049.16;10446145;28;20953;-74
2023/09/24 18:47:25;;;;;;;5.13;2.70;;;;;;;-145.68;100.00;75057.16;10445997;28;20224;-74
2023/09/24 18:52:26;;;;;;;3.87;2.63;;;;;;;-145.68;100.00;75069.16;10427703;28;20206;-74
2023/09/24 18:57:26;;;;;;;4.07;3.13;;;;;;;-145.68;100.00;75091.16;10446164;28;20214;-74
2023/09/24 19:02:27;;;;;;;6.27;2.83;;;;;;;-145.68;100.00;75105.16;10428016;28;20243;-74
2023/09/24 19:07:27;;;;;;;3.03;2.40;;;;;;;-145.68;100.00;75103.16;10453579;28;20656;-74
2023/09/24 19:12:28;;;;;;;3.77;2.60;;;;;;;-145.68;100.00;75123.16;10448875;28;20215;-74
2023/09/24 19:17:28;;;;;;;4.57;2.33;;;;;;;-145.68;100.00;75137.13;10457969;28;20230;-74
2023/09/24 19:22:29;;;;;;;3.30;3.00;;;;;;;-145.68;100.00;75139.13;10453449;28;20652;-74
2023/09/24 19:27:29;;;;;;;5.37;2.93;;;;;;;-145.68;100.00;75145.13;10452775;28;20221;-75
2023/09/24 19:32:30;;;;;;;6.30;3.10;;;;;;;-145.68;100.00;75161.13;10456458;28;20196;-74
2023/09/24 19:37:30;;;;;;;4.30;3.20;;;;;;;-145.68;100.00;75171.13;10449282;28;20231;-73
2023/09/24 19:42:33;;;;;;;4.57;2.87;;;;;;;-145.68;100.00;75193.13;10452423;28;20192;-74
2023/09/24 19:47:34;;;;;;;4.23;2.53;;;;;;;-145.68;100.00;75191.13;10452137;28;20228;-74
2023/09/24 19:52:34;;;;;;;3.80;3.00;;;;;;;-145.68;100.00;75209.13;10451185;28;20192;-74
2023/09/24 19:57:35;;;;;;;6.37;2.83;;;;;;;-145.68;100.00;75211.13;10452468;28;20223;-74
2023/09/24 20:02:35;;;;;;;3.47;2.53;;;;;;;-145.68;100.00;75219.13;10451012;28;20284;-74
2023/09/24 20:07:37;;;;;;;5.73;2.67;;;;;;;-145.68;100.00;75229.13;10433807;28;20222;-75
2023/09/24 20:12:37;;;;;;;6.07;3.23;;;;;;;-145.68;100.00;75235.13;10451436;28;20192;-75
2023/09/24 20:17:38;;;;;;;2.83;2.60;;;;;;;-145.68;100.00;75231.13;10424901;28;20692;-74
2023/09/24 20:22:38;;;;;;;3.37;2.73;;;;;;;-145.68;100.00;75267.13;10450073;28;20219;-74
2023/09/24 20:27:39;;;;;;;6.00;2.90;;;;;;;-145.68;100.00;75261.13;10450592;28;20207;-75
2023/09/24 20:32:39;;;;;;;6.73;2.70;;;;;;;-145.68;100.00;75253.13;10449807;28;20184;-75
2023/09/24 20:37:40;;;;;;;3.27;2.07;;;;;;;-145.68;100.00;75259.13;10454821;28;20212;-75
2023/09/24 20:42:40;;;;;;;3.37;2.57;;;;;;;-145.68;100.00;75263.13;10449619;28;20253;-74
2023/09/24 20:47:40;;;;;;;2.73;2.50;;;;;;;-145.68;100.00;75277.13;10431900;28;20255;-75
2023/09/24 20:52:44;;;;;;;3.97;2.60;;;;;;;-145.68;100.00;75283.13;10449739;28;20203;-74
2023/09/24 20:57:44;;;;;;;3.37;2.97;;;;;;;-145.68;100.00;75283.13;10453585;28;20783;-74
2023/09/24 21:02:45;;;;;;;2.93;2.70;;;;;;;-145.68;100.00;75291.13;10448802;28;20203;-74
2023/09/24 21:07:45;;;;;;;3.57;2.97;;;;;;;-145.68;100.00;75303.13;10449151;28;20188;-74
2023/09/24 21:12:45;;;;;;;3.00;2.80;;;;;;;-145.68;100.00;75303.13;10448829;28;20200;-75
2023/09/24 21:17:46;;;;;;;3.50;3.10;;;;;;;-145.68;100.00;75297.13;10434360;28;20227;-74
2023/09/24 21:22:46;;;;;;;3.30;2.70;;;;;;;-145.68;100.00;75305.13;10448598;28;20187;-74
2023/09/24 21:27:47;;;;;;;2.83;2.63;;;;;;;-145.68;100.00;75321.09;10448252;28;20184;-74
2023/09/24 21:32:47;;;;;;;4.73;3.17;;;;;;;-145.68;100.00;75323.09;10451839;28;20536;-74
2023/09/24 21:37:47;;;;;;;3.43;3.10;;;;;;;-145.68;100.00;75327.09;10447829;28;20223;-74
2023/09/24 21:42:48;;;;;;;4.83;3.23;;;;;;;-145.68;100.00;75335.09;10447505;28;20707;-75
2023/09/24 21:47:48;;;;;;;4.03;2.73;;;;;;;-145.68;100.00;75337.09;10447194;28;20243;-74
2023/09/24 21:52:49;;;;;;;2.83;2.53;;;;;;;-145.68;100.00;75349.09;10451061;28;20204;-74
2023/09/24 21:57:49;;;;;;;4.33;3.33;;;;;;;-145.68;100.00;75343.09;10447423;28;20748;-75
2023/09/24 22:02:49;;;;;;;3.80;3.37;;;;;;;-145.68;100.00;75337.09;10446442;28;20192;-74
2023/09/24 22:07:50;;;;;;;3.20;2.90;;;;;;;-145.68;100.00;75341.09;10429392;28;20188;-75
2023/09/24 22:12:50;;;;;;;3.07;2.87;;;;;;;-145.68;100.00;75337.09;10450542;28;20253;-75
2023/09/24 22:17:51;;;;;;;6.13;3.20;;;;;;;-145.68;100.00;75331.09;10446220;28;20261;-74
2023/09/24 22:22:51;;;;;;;6.50;2.97;;;;;;;-145.68;100.00;75335.09;10446203;28;20233;-75
2023/09/24 22:27:52;;;;;;;3.87;3.10;;;;;;;-145.68;100.00;75339.09;10446062;28;20188;-74
2023/09/24 22:32:53;;;;;;;2.87;2.40;;;;;;;-145.68;100.00;75347.09;10436872;28;20199;-75
2023/09/24 22:37:53;;;;;;;4.27;2.97;;;;;;;-145.68;100.00;75359.09;10441822;28;20309;-74
2023/09/24 22:42:53;;;;;;;3.63;2.93;;;;;;;-145.68;100.00;75371.09;10445909;28;20199;-75